Niagara Falls, NY

3:02 AM EDT on May 26, 2015 (GMT -0400)
Niagara Falls International | | Change Station
CLOSE
Current Station
Airport
Location: Niagara Falls,
Elevation: 584 ft
Nearby Weather Stations

Elev 584 ft 43.11 °N, 78.94 °W | Updated 9 minutes ago

Partly Cloudy
Partly Cloudy
65 °F
Feels Like 65 °F
N
10
Wind Variable Wind from SW

Today
High -- | Low -- °F
--% Chance of Precip.
Yesterday
High -- | Low -- °F
Precip. -- in
5:42 AM 8:43 PM
First Quarter, 55% visible
Pressure 30.03 in
Visibility 10.0 miles
Clouds Few 5500 ft
Few 7000 ft
Dew Point 59 °F
Humidity 81%
Rainfall 0.00 in
Snow Depth Not available.
UV 0 out of 12
Pollen 8.80 out of 12
Air Quality Not available.
Flu Activity Widespread
METAR KIAG 260653Z AUTO 23009KT 10SM FEW055 FEW070 18/15 A3004 RMK AO2 SLP167 T01830150

More Conditions Fewer Conditions

Pressure 30.03 in
Visibility 10.0 miles
Clouds Few 5500 ft
Few 7000 ft
Dew Point 59 °F
Humidity 81%
Rainfall 0.00 in
Snow Depth Not available.
UV 0 out of 12
Pollen 8.80 out of 12
Air Quality Not available.
Flu Activity Widespread
METAR KIAG 260653Z AUTO 23009KT 10SM FEW055 FEW070 18/15 A3004 RMK AO2 SLP167 T01830150

More Conditions Fewer Conditions

10-Day Weather Forecast

Almanac

Astronomy

May. 26, 2015 Rise Set
Actual Time
Civil Twilight
Nautical Twilight
Astronomical Twilight
Moon
Length of Visible Light
Length of Day
Tomorrow will be .
, % of the Moon is Illuminated

Today's Extremes

State Highs State Lows

Community

WunderPhotos

Upload Photos

1,824,299 photos uploaded!

WunderBlogs® & News

Nearby

Air Quality

  Air Quality AQ Index Pollutant
Not available.

Snow Depth

Station Depth Elevation

Earthquake Activity

City Distance Mag. Time & Date
Minimum magnitude displayed is 2.5.

Coastal Water Temperatures

Place Temperature

Stations

Nearby Weather Stations

Station Location Temp. Windchill Dew Point Humidity Wind Precip. Elev Updated Type